sensor_id;sensor_type;location;lat;lon;timestamp;P1;P2;P0
38451;PMS5003;24231;52.514;13.438;2023-02-22T00:03:10;14;9;
38451;PMS5003;24231;52.514;13.438;2023-02-22T00:06:30;4;3;
38451;PMS5003;24231;52.514;13.438;2023-02-22T00:08:58;3;2;
38451;PMS5003;24231;52.514;13.438;2023-02-22T00:11:25;3;3;
38451;PMS5003;24231;52.514;13.438;2023-02-22T00:13:52;6;3;
38451;PMS5003;24231;52.514;13.438;2023-02-22T00:16:20;4;3;
38451;PMS5003;24231;52.514;13.438;2023-02-22T00:18:49;6;3;
38451;PMS5003;24231;52.514;13.438;2023-02-22T00:21:17;7;5;
38451;PMS5003;24231;52.514;13.438;2023-02-22T00:23:46;7;5;
38451;PMS5003;24231;52.514;13.438;2023-02-22T00:26:16;11;8;
38451;PMS5003;24231;52.514;13.438;2023-02-22T00:28:48;3;3;
38451;PMS5003;24231;52.514;13.438;2023-02-22T00:31:29;4;4;
38451;PMS5003;24231;52.514;13.438;2023-02-22T00:33:56;3;3;
38451;PMS5003;24231;52.514;13.438;2023-02-22T00:36:25;6;5;
38451;PMS5003;24231;52.514;13.438;2023-02-22T00:38:53;4;4;
38451;PMS5003;24231;52.514;13.438;2023-02-22T00:41:33;7;5;
38451;PMS5003;24231;52.514;13.438;2023-02-22T00:44:02;8;3;
38451;PMS5003;24231;52.514;13.438;2023-02-22T00:46:39;6;5;
38451;PMS5003;24231;52.514;13.438;2023-02-22T00:49:08;10;6;
38451;PMS5003;24231;52.514;13.438;2023-02-22T00:52:13;4;4;
38451;PMS5003;24231;52.514;13.438;2023-02-22T00:56:46;8;4;
38451;PMS5003;24231;52.514;13.438;2023-02-22T00:59:56;5;2;
38451;PMS5003;24231;52.514;13.438;2023-02-22T01:12:11;7;3;
38451;PMS5003;24231;52.514;13.438;2023-02-22T01:14:50;5;4;
38451;PMS5003;24231;52.514;13.438;2023-02-22T01:17:17;2;2;
38451;PMS5003;24231;52.514;13.438;2023-02-22T01:19:44;3;3;
38451;PMS5003;24231;52.514;13.438;2023-02-22T01:22:12;2;2;
38451;PMS5003;24231;52.514;13.438;2023-02-22T01:24:40;3;2;
38451;PMS5003;24231;52.514;13.438;2023-02-22T01:27:08;3;2;
38451;PMS5003;24231;52.514;13.438;2023-02-22T01:29:36;3;3;
38451;PMS5003;24231;52.514;13.438;2023-02-22T01:32:05;5;4;
38451;PMS5003;24231;52.514;13.438;2023-02-22T01:34:32;3;1;
38451;PMS5003;24231;52.514;13.438;2023-02-22T01:37:00;1;1;
38451;PMS5003;24231;52.514;13.438;2023-02-22T01:39:27;5;3;
38451;PMS5003;24231;52.514;13.438;2023-02-22T01:41:54;3;3;
38451;PMS5003;24231;52.514;13.438;2023-02-22T01:44:26;5;3;
38451;PMS5003;24231;52.514;13.438;2023-02-22T01:47:06;5;4;
38451;PMS5003;24231;52.514;13.438;2023-02-22T01:49:35;3;2;
38451;PMS5003;24231;52.514;13.438;2023-02-22T01:52:08;2;2;
38451;PMS5003;24231;52.514;13.438;2023-02-22T01:54:40;3;3;
38451;PMS5003;24231;52.514;13.438;2023-02-22T01:57:20;3;2;
38451;PMS5003;24231;52.514;13.438;2023-02-22T01:59:52;6;2;
38451;PMS5003;24231;52.514;13.438;2023-02-22T02:02:58;4;4;
38451;PMS5003;24231;52.514;13.438;2023-02-22T02:05:30;5;4;
38451;PMS5003;24231;52.514;13.438;2023-02-22T02:07:58;2;2;
38451;PMS5003;24231;52.514;13.438;2023-02-22T02:10:33;4;3;
38451;PMS5003;24231;52.514;13.438;2023-02-22T02:13:01;8;4;
38451;PMS5003;24231;52.514;13.438;2023-02-22T02:15:29;2;2;
38451;PMS5003;24231;52.514;13.438;2023-02-22T02:17:59;4;3;
38451;PMS5003;24231;52.514;13.438;2023-02-22T02:20:30;5;4;
38451;PMS5003;24231;52.514;13.438;2023-02-22T02:23:07;5;3;
38451;PMS5003;24231;52.514;13.438;2023-02-22T02:27:12;5;4;
38451;PMS5003;24231;52.514;13.438;2023-02-22T02:29:58;4;3;
38451;PMS5003;24231;52.514;13.438;2023-02-22T02:32:59;3;3;
38451;PMS5003;24231;52.514;13.438;2023-02-22T02:35:49;6;5;
38451;PMS5003;24231;52.514;13.438;2023-02-22T02:38:26;3;2;
38451;PMS5003;24231;52.514;13.438;2023-02-22T02:41:02;11;9;
38451;PMS5003;24231;52.514;13.438;2023-02-22T02:43:37;15;12;
38451;PMS5003;24231;52.514;13.438;2023-02-22T02:46:13;12;9;
38451;PMS5003;24231;52.514;13.438;2023-02-22T02:49:14;11;10;
38451;PMS5003;24231;52.514;13.438;2023-02-22T02:51:46;14;10;
38451;PMS5003;24231;52.514;13.438;2023-02-22T02:54:19;19;14;
38451;PMS5003;24231;52.514;13.438;2023-02-22T02:56:49;8;8;
38451;PMS5003;24231;52.514;13.438;2023-02-22T02:59:22;6;5;
38451;PMS5003;24231;52.514;13.438;2023-02-22T03:01:55;6;5;
38451;PMS5003;24231;52.514;13.438;2023-02-22T03:04:34;5;3;
38451;PMS5003;24231;52.514;13.438;2023-02-22T03:07:18;8;8;
38451;PMS5003;24231;52.514;13.438;2023-02-22T03:10:44;4;4;
38451;PMS5003;24231;52.514;13.438;2023-02-22T03:13:18;6;6;
38451;PMS5003;24231;52.514;13.438;2023-02-22T03:15:55;6;6;
38451;PMS5003;24231;52.514;13.438;2023-02-22T03:18:50;9;6;
38451;PMS5003;24231;52.514;13.438;2023-02-22T03:22:47;8;6;
38451;PMS5003;24231;52.514;13.438;2023-02-22T03:25:21;10;9;
38451;PMS5003;24231;52.514;13.438;2023-02-22T03:28:06;5;5;
38451;PMS5003;24231;52.514;13.438;2023-02-22T03:30:43;6;6;
38451;PMS5003;24231;52.514;13.438;2023-02-22T03:33:16;13;11;
38451;PMS5003;24231;52.514;13.438;2023-02-22T03:36:06;12;9;
38451;PMS5003;24231;52.514;13.438;2023-02-22T03:38:39;10;8;
38451;PMS5003;24231;52.514;13.438;2023-02-22T03:41:10;11;8;
38451;PMS5003;24231;52.514;13.438;2023-02-22T03:43:43;14;10;
38451;PMS5003;24231;52.514;13.438;2023-02-22T03:46:15;10;5;
38451;PMS5003;24231;52.514;13.438;2023-02-22T03:48:45;8;7;
38451;PMS5003;24231;52.514;13.438;2023-02-22T03:51:18;6;6;
38451;PMS5003;24231;52.514;13.438;2023-02-22T03:53:46;8;5;
38451;PMS5003;24231;52.514;13.438;2023-02-22T03:56:15;5;5;
38451;PMS5003;24231;52.514;13.438;2023-02-22T03:58:48;6;4;
38451;PMS5003;24231;52.514;13.438;2023-02-22T04:01:17;12;9;
38451;PMS5003;24231;52.514;13.438;2023-02-22T04:03:45;13;9;
38451;PMS5003;24231;52.514;13.438;2023-02-22T04:06:14;9;6;
38451;PMS5003;24231;52.514;13.438;2023-02-22T04:08:43;8;7;
38451;PMS5003;24231;52.514;13.438;2023-02-22T04:11:11;8;7;
38451;PMS5003;24231;52.514;13.438;2023-02-22T04:13:38;9;6;
38451;PMS5003;24231;52.514;13.438;2023-02-22T04:16:05;10;9;
38451;PMS5003;24231;52.514;13.438;2023-02-22T04:18:32;6;4;
38451;PMS5003;24231;52.514;13.438;2023-02-22T04:21:00;5;4;
38451;PMS5003;24231;52.514;13.438;2023-02-22T04:23:42;3;3;
38451;PMS5003;24231;52.514;13.438;2023-02-22T04:26:10;8;5;
38451;PMS5003;24231;52.514;13.438;2023-02-22T04:28:38;9;7;
38451;PMS5003;24231;52.514;13.438;2023-02-22T04:31:05;4;4;
38451;PMS5003;24231;52.514;13.438;2023-02-22T04:33:32;11;5;
38451;PMS5003;24231;52.514;13.438;2023-02-22T04:36:00;10;8;
38451;PMS5003;24231;52.514;13.438;2023-02-22T04:38:27;9;7;
38451;PMS5003;24231;52.514;13.438;2023-02-22T04:40:54;7;7;
38451;PMS5003;24231;52.514;13.438;2023-02-22T04:43:22;11;7;
38451;PMS5003;24231;52.514;13.438;2023-02-22T04:45:49;6;5;
38451;PMS5003;24231;52.514;13.438;2023-02-22T04:48:18;6;4;
38451;PMS5003;24231;52.514;13.438;2023-02-22T04:50:45;7;3;
38451;PMS5003;24231;52.514;13.438;2023-02-22T04:53:12;8;6;
38451;PMS5003;24231;52.514;13.438;2023-02-22T04:55:40;3;3;
38451;PMS5003;24231;52.514;13.438;2023-02-22T04:58:08;9;6;
38451;PMS5003;24231;52.514;13.438;2023-02-22T05:00:35;5;3;
38451;PMS5003;24231;52.514;13.438;2023-02-22T05:03:03;4;3;
